Cerquilho, Brazil
Current Conditions -  °F | °C
As of 1:00 AM on Thursday 27 Nov 2014 (Local Time) from SBKP Reporting Station
Light Rain Light Rain  
Wind Chill: 70°   Ceiling: 2500
Heat Index: 70°   Visibility: 4mi
Dew Point: 68°   Wind: 2mph
Humidity: 94%   Direction: 240°WSW
Pressure: 29.91"   Gusts: NA
Location:  23.15°S, 47.75°W
Report Text: SBKP 270300Z 24002KT 6000 -RA FEW005 BKN025 OVC080 21/20 Q1013 RERA
Loading
Personal Weather Stations






























Interactive Weather Map New forecast layout! Learn more

10-Day Weather Forecast

Advertisements
Track Severe Weather on mobile